sensor_id;sensor_type;location;lat;lon;timestamp;P1;durP1;ratioP1;P2;durP2;ratioP2
5117;SDS011;2578;51.622;7.046;2023-08-24T00:01:06;5.10;;;4.60;;
5117;SDS011;2578;51.622;7.046;2023-08-24T00:03:34;5.13;;;4.63;;
5117;SDS011;2578;51.622;7.046;2023-08-24T00:05:59;5.30;;;4.80;;
5117;SDS011;2578;51.622;7.046;2023-08-24T00:08:25;5.30;;;4.80;;
5117;SDS011;2578;51.622;7.046;2023-08-24T00:10:52;5.50;;;5.00;;
5117;SDS011;2578;51.622;7.046;2023-08-24T00:13:17;5.60;;;5.10;;
5117;SDS011;2578;51.622;7.046;2023-08-24T00:15:44;5.30;;;4.80;;
5117;SDS011;2578;51.622;7.046;2023-08-24T00:18:10;5.50;;;5.00;;
5117;SDS011;2578;51.622;7.046;2023-08-24T00:20:36;5.60;;;5.10;;
5117;SDS011;2578;51.622;7.046;2023-08-24T00:23:02;5.60;;;5.10;;
5117;SDS011;2578;51.622;7.046;2023-08-24T00:25:29;5.50;;;5.00;;
5117;SDS011;2578;51.622;7.046;2023-08-24T00:27:55;5.70;;;5.20;;
5117;SDS011;2578;51.622;7.046;2023-08-24T00:30:21;5.70;;;5.20;;
5117;SDS011;2578;51.622;7.046;2023-08-24T00:32:48;5.77;;;5.27;;
5117;SDS011;2578;51.622;7.046;2023-08-24T00:35:13;5.80;;;5.30;;
5117;SDS011;2578;51.622;7.046;2023-08-24T00:37:39;5.57;;;5.07;;
5117;SDS011;2578;51.622;7.046;2023-08-24T00:40:06;5.40;;;4.90;;
5117;SDS011;2578;51.622;7.046;2023-08-24T00:42:41;5.60;;;5.10;;
5117;SDS011;2578;51.622;7.046;2023-08-24T00:45:09;5.20;;;4.70;;
5117;SDS011;2578;51.622;7.046;2023-08-24T00:47:45;5.60;;;5.10;;
5117;SDS011;2578;51.622;7.046;2023-08-24T00:50:12;5.50;;;5.00;;
5117;SDS011;2578;51.622;7.046;2023-08-24T00:52:38;5.33;;;4.83;;
5117;SDS011;2578;51.622;7.046;2023-08-24T00:55:06;5.30;;;4.80;;
5117;SDS011;2578;51.622;7.046;2023-08-24T00:57:32;5.10;;;4.60;;
5117;SDS011;2578;51.622;7.046;2023-08-24T01:00:02;5.10;;;4.60;;
5117;SDS011;2578;51.622;7.046;2023-08-24T01:02:36;5.20;;;4.70;;
5117;SDS011;2578;51.622;7.046;2023-08-24T01:05:02;4.50;;;3.97;;
5117;SDS011;2578;51.622;7.046;2023-08-24T01:07:29;5.20;;;4.70;;
5117;SDS011;2578;51.622;7.046;2023-08-24T01:09:56;5.70;;;5.20;;
5117;SDS011;2578;51.622;7.046;2023-08-24T01:12:42;5.50;;;5.00;;
5117;SDS011;2578;51.622;7.046;2023-08-24T01:15:36;5.50;;;5.00;;
5117;SDS011;2578;51.622;7.046;2023-08-24T01:18:06;6.10;;;5.60;;
5117;SDS011;2578;51.622;7.046;2023-08-24T01:20:36;5.87;;;5.37;;
5117;SDS011;2578;51.622;7.046;2023-08-24T01:23:07;6.20;;;5.70;;
5117;SDS011;2578;51.622;7.046;2023-08-24T01:26:13;5.80;;;5.30;;
5117;SDS011;2578;51.622;7.046;2023-08-24T01:28:44;5.50;;;5.00;;
5117;SDS011;2578;51.622;7.046;2023-08-24T01:31:10;7.73;;;6.60;;
5117;SDS011;2578;51.622;7.046;2023-08-24T01:33:39;5.50;;;5.00;;
5117;SDS011;2578;51.622;7.046;2023-08-24T01:36:04;5.67;;;5.17;;
5117;SDS011;2578;51.622;7.046;2023-08-24T01:38:30;5.60;;;5.10;;
5117;SDS011;2578;51.622;7.046;2023-08-24T01:41:09;5.50;;;5.00;;
5117;SDS011;2578;51.622;7.046;2023-08-24T01:43:41;5.70;;;5.20;;
5117;SDS011;2578;51.622;7.046;2023-08-24T01:46:11;5.60;;;5.10;;
5117;SDS011;2578;51.622;7.046;2023-08-24T01:48:40;5.50;;;5.00;;
5117;SDS011;2578;51.622;7.046;2023-08-24T01:51:08;5.80;;;5.30;;
5117;SDS011;2578;51.622;7.046;2023-08-24T01:53:35;5.60;;;5.10;;
5117;SDS011;2578;51.622;7.046;2023-08-24T01:56:07;5.40;;;4.90;;
5117;SDS011;2578;51.622;7.046;2023-08-24T01:58:34;5.90;;;5.40;;
5117;SDS011;2578;51.622;7.046;2023-08-24T02:01:00;5.90;;;5.40;;
5117;SDS011;2578;51.622;7.046;2023-08-24T02:03:26;6.00;;;5.50;;
5117;SDS011;2578;51.622;7.046;2023-08-24T02:05:51;6.50;;;6.00;;
5117;SDS011;2578;51.622;7.046;2023-08-24T02:08:17;6.10;;;5.60;;
5117;SDS011;2578;51.622;7.046;2023-08-24T02:10:42;6.00;;;5.50;;
5117;SDS011;2578;51.622;7.046;2023-08-24T02:13:08;6.73;;;6.13;;
5117;SDS011;2578;51.622;7.046;2023-08-24T02:15:34;5.60;;;5.10;;
5117;SDS011;2578;51.622;7.046;2023-08-24T02:17:59;5.60;;;5.10;;
5117;SDS011;2578;51.622;7.046;2023-08-24T02:20:25;6.07;;;5.57;;
5117;SDS011;2578;51.622;7.046;2023-08-24T02:22:51;5.90;;;5.40;;
5117;SDS011;2578;51.622;7.046;2023-08-24T02:25:17;6.00;;;5.50;;
5117;SDS011;2578;51.622;7.046;2023-08-24T02:27:43;6.20;;;5.70;;
5117;SDS011;2578;51.622;7.046;2023-08-24T02:30:08;5.80;;;5.30;;
5117;SDS011;2578;51.622;7.046;2023-08-24T02:32:34;5.80;;;5.30;;
5117;SDS011;2578;51.622;7.046;2023-08-24T02:35:00;5.63;;;5.13;;
5117;SDS011;2578;51.622;7.046;2023-08-24T02:37:26;5.40;;;4.90;;
5117;SDS011;2578;51.622;7.046;2023-08-24T02:39:52;5.60;;;5.10;;
5117;SDS011;2578;51.622;7.046;2023-08-24T02:42:17;5.10;;;4.60;;
5117;SDS011;2578;51.622;7.046;2023-08-24T02:44:44;5.10;;;4.60;;
5117;SDS011;2578;51.622;7.046;2023-08-24T02:47:10;5.40;;;4.90;;
5117;SDS011;2578;51.622;7.046;2023-08-24T02:49:35;5.67;;;5.17;;
5117;SDS011;2578;51.622;7.046;2023-08-24T02:52:01;5.50;;;5.00;;
5117;SDS011;2578;51.622;7.046;2023-08-24T02:54:26;5.80;;;5.30;;
5117;SDS011;2578;51.622;7.046;2023-08-24T02:56:53;6.00;;;5.50;;
5117;SDS011;2578;51.622;7.046;2023-08-24T02:59:19;5.70;;;5.20;;
5117;SDS011;2578;51.622;7.046;2023-08-24T03:01:44;6.40;;;5.90;;
5117;SDS011;2578;51.622;7.046;2023-08-24T03:04:10;6.00;;;5.50;;
5117;SDS011;2578;51.622;7.046;2023-08-24T03:06:35;6.00;;;5.50;;
5117;SDS011;2578;51.622;7.046;2023-08-24T03:09:02;6.00;;;5.50;;
5117;SDS011;2578;51.622;7.046;2023-08-24T03:11:29;5.90;;;5.40;;
5117;SDS011;2578;51.622;7.046;2023-08-24T03:13:55;5.80;;;5.30;;
5117;SDS011;2578;51.622;7.046;2023-08-24T03:16:20;6.20;;;5.70;;
5117;SDS011;2578;51.622;7.046;2023-08-24T03:18:46;6.10;;;5.60;;
5117;SDS011;2578;51.622;7.046;2023-08-24T03:21:12;6.20;;;5.70;;
5117;SDS011;2578;51.622;7.046;2023-08-24T03:23:37;6.20;;;5.70;;
5117;SDS011;2578;51.622;7.046;2023-08-24T03:26:03;6.20;;;5.70;;
5117;SDS011;2578;51.622;7.046;2023-08-24T03:28:29;6.10;;;5.60;;
5117;SDS011;2578;51.622;7.046;2023-08-24T03:30:54;6.10;;;5.60;;
5117;SDS011;2578;51.622;7.046;2023-08-24T03:33:20;6.10;;;5.60;;
5117;SDS011;2578;51.622;7.046;2023-08-24T03:35:46;6.10;;;5.60;;
5117;SDS011;2578;51.622;7.046;2023-08-24T03:38:12;6.10;;;5.60;;
5117;SDS011;2578;51.622;7.046;2023-08-24T03:40:38;5.90;;;5.40;;
5117;SDS011;2578;51.622;7.046;2023-08-24T03:43:04;5.80;;;5.30;;
5117;SDS011;2578;51.622;7.046;2023-08-24T03:45:30;5.50;;;5.00;;
5117;SDS011;2578;51.622;7.046;2023-08-24T03:47:55;5.60;;;5.10;;
5117;SDS011;2578;51.622;7.046;2023-08-24T03:50:21;5.93;;;5.43;;
5117;SDS011;2578;51.622;7.046;2023-08-24T03:52:48;6.20;;;5.70;;
5117;SDS011;2578;51.622;7.046;2023-08-24T03:55:15;5.70;;;5.20;;
5117;SDS011;2578;51.622;7.046;2023-08-24T03:57:41;6.13;;;5.63;;
5117;SDS011;2578;51.622;7.046;2023-08-24T04:00:07;5.97;;;5.47;;
5117;SDS011;2578;51.622;7.046;2023-08-24T04:02:43;6.43;;;5.93;;
5117;SDS011;2578;51.622;7.046;2023-08-24T04:05:09;7.13;;;6.53;;
5117;SDS011;2578;51.622;7.046;2023-08-24T04:07:35;6.03;;;5.53;;
5117;SDS011;2578;51.622;7.046;2023-08-24T04:10:04;6.40;;;5.90;;
5117;SDS011;2578;51.622;7.046;2023-08-24T04:12:31;6.83;;;6.23;;
5117;SDS011;2578;51.622;7.046;2023-08-24T04:14:57;7.53;;;6.93;;
5117;SDS011;2578;51.622;7.046;2023-08-24T04:17:23;7.30;;;6.70;;
5117;SDS011;2578;51.622;7.046;2023-08-24T04:19:49;7.40;;;6.80;;
5117;SDS011;2578;51.622;7.046;2023-08-24T04:22:15;7.90;;;7.20;;
5117;SDS011;2578;51.622;7.046;2023-08-24T04:24:40;6.60;;;6.10;;
5117;SDS011;2578;51.622;7.046;2023-08-24T04:27:06;8.47;;;7.87;;
5117;SDS011;2578;51.622;7.046;2023-08-24T04:29:32;7.40;;;6.80;;
5117;SDS011;2578;51.622;7.046;2023-08-24T04:31:57;7.57;;;6.97;;
5117;SDS011;2578;51.622;7.046;2023-08-24T04:34:23;7.80;;;7.20;;
5117;SDS011;2578;51.622;7.046;2023-08-24T04:36:48;7.80;;;7.20;;
5117;SDS011;2578;51.622;7.046;2023-08-24T04:39:14;8.00;;;7.40;;
5117;SDS011;2578;51.622;7.046;2023-08-24T04:41:40;10.00;;;9.30;;
5117;SDS011;2578;51.622;7.046;2023-08-24T04:44:06;9.80;;;9.00;;
5117;SDS011;2578;51.622;7.046;2023-08-24T04:46:33;10.47;;;9.67;;
5117;SDS011;2578;51.622;7.046;2023-08-24T04:48:58;14.30;;;12.57;;
5117;SDS011;2578;51.622;7.046;2023-08-24T04:51:24;24.43;;;9.73;;
5117;SDS011;2578;51.622;7.046;2023-08-24T04:53:52;15.93;;;11.30;;
5117;SDS011;2578;51.622;7.046;2023-08-24T04:56:18;13.03;;;10.93;;
5117;SDS011;2578;51.622;7.046;2023-08-24T04:58:54;9.40;;;8.70;;
5117;SDS011;2578;51.622;7.046;2023-08-24T05:01:22;11.50;;;10.47;;
5117;SDS011;2578;51.622;7.046;2023-08-24T05:03:48;9.57;;;8.87;;
5117;SDS011;2578;51.622;7.046;2023-08-24T05:06:13;11.37;;;10.30;;
5117;SDS011;2578;51.622;7.046;2023-08-24T05:08:39;11.47;;;10.47;;
5117;SDS011;2578;51.622;7.046;2023-08-24T05:11:11;12.00;;;10.87;;
5117;SDS011;2578;51.622;7.046;2023-08-24T05:13:38;10.63;;;9.73;;
5117;SDS011;2578;51.622;7.046;2023-08-24T05:16:04;12.03;;;10.93;;
5117;SDS011;2578;51.622;7.046;2023-08-24T05:18:30;9.90;;;9.00;;
5117;SDS011;2578;51.622;7.046;2023-08-24T05:20:56;8.93;;;8.23;;
5117;SDS011;2578;51.622;7.046;2023-08-24T05:23:22;10.40;;;9.60;;
5117;SDS011;2578;51.622;7.046;2023-08-24T05:25:47;10.10;;;9.03;;
5117;SDS011;2578;51.622;7.046;2023-08-24T05:28:13;7.50;;;6.90;;
5117;SDS011;2578;51.622;7.046;2023-08-24T05:30:39;8.50;;;7.90;;
5117;SDS011;2578;51.622;7.046;2023-08-24T05:33:05;7.90;;;7.20;;
5117;SDS011;2578;51.622;7.046;2023-08-24T05:35:32;7.67;;;7.07;;
5117;SDS011;2578;51.622;7.046;2023-08-24T05:37:57;8.33;;;7.73;;
5117;SDS011;2578;51.622;7.046;2023-08-24T05:40:23;9.27;;;8.57;;
5117;SDS011;2578;51.622;7.046;2023-08-24T05:42:48;8.97;;;8.27;;
5117;SDS011;2578;51.622;7.046;2023-08-24T05:45:14;11.77;;;10.60;;
5117;SDS011;2578;51.622;7.046;2023-08-24T05:47:41;8.20;;;7.60;;
5117;SDS011;2578;51.622;7.046;2023-08-24T05:50:06;8.60;;;8.00;;
5117;SDS011;2578;51.622;7.046;2023-08-24T05:52:32;8.73;;;8.13;;
5117;SDS011;2578;51.622;7.046;2023-08-24T05:54:58;8.30;;;7.70;;
5117;SDS011;2578;51.622;7.046;2023-08-24T05:57:23;9.10;;;8.50;;
5117;SDS011;2578;51.622;7.046;2023-08-24T05:59:49;8.73;;;8.13;;
5117;SDS011;2578;51.622;7.046;2023-08-24T06:02:14;10.10;;;9.40;;
5117;SDS011;2578;51.622;7.046;2023-08-24T06:04:40;11.03;;;9.60;;
5117;SDS011;2578;51.622;7.046;2023-08-24T06:07:07;8.67;;;8.07;;
5117;SDS011;2578;51.622;7.046;2023-08-24T06:09:35;8.60;;;8.00;;
5117;SDS011;2578;51.622;7.046;2023-08-24T06:12:01;8.70;;;8.10;;
5117;SDS011;2578;51.622;7.046;2023-08-24T06:14:27;8.30;;;7.70;;
5117;SDS011;2578;51.622;7.046;2023-08-24T06:16:52;9.70;;;8.90;;
5117;SDS011;2578;51.622;7.046;2023-08-24T06:19:18;6.50;;;6.00;;
5117;SDS011;2578;51.622;7.046;2023-08-24T06:21:44;5.00;;;4.30;;
5117;SDS011;2578;51.622;7.046;2023-08-24T06:24:09;4.37;;;3.30;;
5117;SDS011;2578;51.622;7.046;2023-08-24T06:26:35;4.90;;;4.40;;
5117;SDS011;2578;51.622;7.046;2023-08-24T06:29:01;4.47;;;3.70;;
5117;SDS011;2578;51.622;7.046;2023-08-24T06:31:27;4.80;;;4.30;;
5117;SDS011;2578;51.622;7.046;2023-08-24T06:33:55;5.30;;;4.70;;
5117;SDS011;2578;51.622;7.046;2023-08-24T06:36:20;5.50;;;5.00;;
5117;SDS011;2578;51.622;7.046;2023-08-24T06:38:46;5.70;;;5.20;;
5117;SDS011;2578;51.622;7.046;2023-08-24T06:41:12;6.40;;;5.80;;
5117;SDS011;2578;51.622;7.046;2023-08-24T06:43:37;6.80;;;5.97;;
5117;SDS011;2578;51.622;7.046;2023-08-24T06:46:04;6.30;;;5.80;;
5117;SDS011;2578;51.622;7.046;2023-08-24T06:48:33;8.70;;;8.00;;
5117;SDS011;2578;51.622;7.046;2023-08-24T06:50:59;7.83;;;7.23;;
5117;SDS011;2578;51.622;7.046;2023-08-24T06:53:25;8.10;;;7.50;;
5117;SDS011;2578;51.622;7.046;2023-08-24T06:55:56;8.70;;;8.10;;
5117;SDS011;2578;51.622;7.046;2023-08-24T06:58:23;8.33;;;7.73;;
5117;SDS011;2578;51.622;7.046;2023-08-24T07:00:48;9.57;;;8.90;;
5117;SDS011;2578;51.622;7.046;2023-08-24T07:03:17;10.87;;;10.07;;
5117;SDS011;2578;51.622;7.046;2023-08-24T07:05:43;10.30;;;9.60;;
5117;SDS011;2578;51.622;7.046;2023-08-24T07:08:10;10.97;;;10.27;;
5117;SDS011;2578;51.622;7.046;2023-08-24T07:10:36;10.77;;;10.07;;
5117;SDS011;2578;51.622;7.046;2023-08-24T07:13:02;10.10;;;9.30;;
5117;SDS011;2578;51.622;7.046;2023-08-24T07:15:27;10.90;;;10.10;;
5117;SDS011;2578;51.622;7.046;2023-08-24T07:17:53;9.60;;;9.00;;
5117;SDS011;2578;51.622;7.046;2023-08-24T07:20:19;10.60;;;9.80;;
5117;SDS011;2578;51.622;7.046;2023-08-24T07:22:45;12.17;;;11.37;;
5117;SDS011;2578;51.622;7.046;2023-08-24T07:25:11;10.90;;;10.03;;
5117;SDS011;2578;51.622;7.046;2023-08-24T07:27:37;10.77;;;9.80;;
5117;SDS011;2578;51.622;7.046;2023-08-24T07:30:03;11.53;;;10.73;;
5117;SDS011;2578;51.622;7.046;2023-08-24T07:32:31;12.77;;;11.57;;
5117;SDS011;2578;51.622;7.046;2023-08-24T07:34:56;12.10;;;11.20;;
5117;SDS011;2578;51.622;7.046;2023-08-24T07:37:24;12.80;;;11.90;;
5117;SDS011;2578;51.622;7.046;2023-08-24T07:39:50;12.20;;;11.40;;
5117;SDS011;2578;51.622;7.046;2023-08-24T07:42:19;11.70;;;10.90;;
5117;SDS011;2578;51.622;7.046;2023-08-24T07:44:46;12.73;;;11.63;;
5117;SDS011;2578;51.622;7.046;2023-08-24T07:47:12;12.70;;;11.90;;
5117;SDS011;2578;51.622;7.046;2023-08-24T07:49:38;13.53;;;12.43;;
5117;SDS011;2578;51.622;7.046;2023-08-24T07:52:12;14.50;;;13.50;;
5117;SDS011;2578;51.622;7.046;2023-08-24T07:54:38;14.40;;;13.40;;
5117;SDS011;2578;51.622;7.046;2023-08-24T07:57:04;14.73;;;13.73;;
5117;SDS011;2578;51.622;7.046;2023-08-24T07:59:30;16.00;;;14.90;;
5117;SDS011;2578;51.622;7.046;2023-08-24T08:01:56;17.10;;;15.90;;
5117;SDS011;2578;51.622;7.046;2023-08-24T08:04:22;17.00;;;15.80;;
5117;SDS011;2578;51.622;7.046;2023-08-24T08:06:47;17.50;;;16.30;;
5117;SDS011;2578;51.622;7.046;2023-08-24T08:09:13;18.00;;;16.70;;
5117;SDS011;2578;51.622;7.046;2023-08-24T08:11:39;18.20;;;16.90;;
5117;SDS011;2578;51.622;7.046;2023-08-24T08:14:04;21.07;;;19.57;;
5117;SDS011;2578;51.622;7.046;2023-08-24T08:16:30;20.07;;;18.57;;
5117;SDS011;2578;51.622;7.046;2023-08-24T08:18:56;22.03;;;20.33;;
5117;SDS011;2578;51.622;7.046;2023-08-24T08:21:21;21.30;;;19.70;;
5117;SDS011;2578;51.622;7.046;2023-08-24T08:23:48;21.70;;;20.10;;
5117;SDS011;2578;51.622;7.046;2023-08-24T08:26:14;21.10;;;19.50;;
5117;SDS011;2578;51.622;7.046;2023-08-24T08:28:40;22.47;;;20.87;;
5117;SDS011;2578;51.622;7.046;2023-08-24T08:31:06;21.83;;;20.13;;
5117;SDS011;2578;51.622;7.046;2023-08-24T08:33:32;21.20;;;19.67;;
5117;SDS011;2578;51.622;7.046;2023-08-24T08:35:59;20.10;;;18.60;;
5117;SDS011;2578;51.622;7.046;2023-08-24T08:38:25;20.10;;;18.60;;
5117;SDS011;2578;51.622;7.046;2023-08-24T08:40:51;20.03;;;18.53;;
5117;SDS011;2578;51.622;7.046;2023-08-24T08:43:17;19.63;;;18.23;;
5117;SDS011;2578;51.622;7.046;2023-08-24T08:45:43;20.40;;;18.90;;
5117;SDS011;2578;51.622;7.046;2023-08-24T08:48:08;19.77;;;18.30;;
5117;SDS011;2578;51.622;7.046;2023-08-24T08:50:35;26.03;;;20.33;;
5117;SDS011;2578;51.622;7.046;2023-08-24T08:53:01;20.40;;;18.90;;
5117;SDS011;2578;51.622;7.046;2023-08-24T08:55:36;22.30;;;20.60;;
5117;SDS011;2578;51.622;7.046;2023-08-24T08:58:03;22.97;;;20.63;;
5117;SDS011;2578;51.622;7.046;2023-08-24T09:00:29;21.43;;;19.80;;
5117;SDS011;2578;51.622;7.046;2023-08-24T09:02:57;21.73;;;20.13;;
5117;SDS011;2578;51.622;7.046;2023-08-24T09:05:23;21.53;;;19.93;;
5117;SDS011;2578;51.622;7.046;2023-08-24T09:07:51;21.57;;;19.87;;
5117;SDS011;2578;51.622;7.046;2023-08-24T09:10:23;22.20;;;20.60;;
5117;SDS011;2578;51.622;7.046;2023-08-24T09:12:49;21.20;;;19.60;;
5117;SDS011;2578;51.622;7.046;2023-08-24T09:15:15;21.77;;;20.10;;
5117;SDS011;2578;51.622;7.046;2023-08-24T09:17:50;22.20;;;20.40;;
5117;SDS011;2578;51.622;7.046;2023-08-24T09:20:18;22.10;;;20.40;;
5117;SDS011;2578;51.622;7.046;2023-08-24T09:22:47;22.93;;;21.17;;
5117;SDS011;2578;51.622;7.046;2023-08-24T09:25:18;25.17;;;21.90;;
5117;SDS011;2578;51.622;7.046;2023-08-24T09:27:44;22.97;;;21.17;;
5117;SDS011;2578;51.622;7.046;2023-08-24T09:30:10;23.30;;;21.50;;
5117;SDS011;2578;51.622;7.046;2023-08-24T09:32:43;23.13;;;21.33;;
5117;SDS011;2578;51.622;7.046;2023-08-24T09:35:12;24.07;;;22.17;;
5117;SDS011;2578;51.622;7.046;2023-08-24T09:37:41;23.30;;;21.50;;
5117;SDS011;2578;51.622;7.046;2023-08-24T09:40:13;23.17;;;21.37;;
5117;SDS011;2578;51.622;7.046;2023-08-24T09:42:39;23.37;;;21.57;;
5117;SDS011;2578;51.622;7.046;2023-08-24T09:45:12;22.80;;;21.10;;
5117;SDS011;2578;51.622;7.046;2023-08-24T09:47:39;23.67;;;21.87;;
5117;SDS011;2578;51.622;7.046;2023-08-24T09:50:12;23.07;;;21.27;;
5117;SDS011;2578;51.622;7.046;2023-08-24T09:52:39;23.50;;;21.70;;
5117;SDS011;2578;51.622;7.046;2023-08-24T09:55:07;23.53;;;21.77;;
5117;SDS011;2578;51.622;7.046;2023-08-24T09:57:36;23.13;;;21.33;;
5117;SDS011;2578;51.622;7.046;2023-08-24T10:00:06;23.47;;;21.67;;
5117;SDS011;2578;51.622;7.046;2023-08-24T10:02:44;23.30;;;21.50;;
5117;SDS011;2578;51.622;7.046;2023-08-24T10:05:15;23.30;;;21.50;;
5117;SDS011;2578;51.622;7.046;2023-08-24T10:07:49;23.90;;;22.00;;
5117;SDS011;2578;51.622;7.046;2023-08-24T10:10:19;23.70;;;21.90;;
5117;SDS011;2578;51.622;7.046;2023-08-24T10:12:47;23.60;;;21.80;;
5117;SDS011;2578;51.622;7.046;2023-08-24T10:15:16;23.50;;;21.70;;
5117;SDS011;2578;51.622;7.046;2023-08-24T10:17:48;23.97;;;22.07;;
5117;SDS011;2578;51.622;7.046;2023-08-24T10:20:21;25.00;;;23.20;;
5117;SDS011;2578;51.622;7.046;2023-08-24T10:22:54;25.57;;;23.67;;
5117;SDS011;2578;51.622;7.046;2023-08-24T10:25:22;26.40;;;24.40;;
5117;SDS011;2578;51.622;7.046;2023-08-24T10:27:54;27.83;;;25.73;;
5117;SDS011;2578;51.622;7.046;2023-08-24T10:30:22;26.07;;;24.10;;
5117;SDS011;2578;51.622;7.046;2023-08-24T10:32:49;25.90;;;23.93;;
5117;SDS011;2578;51.622;7.046;2023-08-24T10:35:18;27.53;;;25.53;;
5117;SDS011;2578;51.622;7.046;2023-08-24T10:37:46;25.67;;;23.77;;
5117;SDS011;2578;51.622;7.046;2023-08-24T10:40:12;25.80;;;23.80;;
5117;SDS011;2578;51.622;7.046;2023-08-24T10:42:44;24.70;;;22.90;;
5117;SDS011;2578;51.622;7.046;2023-08-24T10:45:14;23.90;;;22.10;;
5117;SDS011;2578;51.622;7.046;2023-08-24T10:47:45;23.83;;;22.03;;
5117;SDS011;2578;51.622;7.046;2023-08-24T10:50:15;23.60;;;21.80;;
5117;SDS011;2578;51.622;7.046;2023-08-24T10:52:46;23.63;;;21.83;;
5117;SDS011;2578;51.622;7.046;2023-08-24T10:55:22;23.60;;;21.80;;
5117;SDS011;2578;51.622;7.046;2023-08-24T10:58:00;23.93;;;22.03;;
5117;SDS011;2578;51.622;7.046;2023-08-24T11:00:34;22.90;;;21.13;;
5117;SDS011;2578;51.622;7.046;2023-08-24T11:03:08;23.67;;;21.77;;
5117;SDS011;2578;51.622;7.046;2023-08-24T11:05:34;23.33;;;21.53;;
5117;SDS011;2578;51.622;7.046;2023-08-24T11:10:34;23.00;;;21.20;;
5117;SDS011;2578;51.622;7.046;2023-08-24T11:13:16;23.87;;;21.93;;
5117;SDS011;2578;51.622;7.046;2023-08-24T11:15:48;23.63;;;21.73;;
5117;SDS011;2578;51.622;7.046;2023-08-24T11:21:01;23.10;;;21.30;;
5117;SDS011;2578;51.622;7.046;2023-08-24T11:23:29;23.00;;;21.20;;
5117;SDS011;2578;51.622;7.046;2023-08-24T11:25:55;22.70;;;21.00;;
5117;SDS011;2578;51.622;7.046;2023-08-24T11:28:23;23.73;;;21.73;;
5117;SDS011;2578;51.622;7.046;2023-08-24T11:30:51;23.20;;;21.30;;
5117;SDS011;2578;51.622;7.046;2023-08-24T11:33:26;23.63;;;21.73;;
5117;SDS011;2578;51.622;7.046;2023-08-24T11:35:53;22.30;;;20.60;;
5117;SDS011;2578;51.622;7.046;2023-08-24T11:38:19;24.40;;;21.70;;
5117;SDS011;2578;51.622;7.046;2023-08-24T11:40:45;22.60;;;20.80;;
5117;SDS011;2578;51.622;7.046;2023-08-24T11:43:10;22.47;;;20.77;;
5117;SDS011;2578;51.622;7.046;2023-08-24T11:45:36;22.10;;;20.40;;
5117;SDS011;2578;51.622;7.046;2023-08-24T11:48:04;21.57;;;19.97;;
5117;SDS011;2578;51.622;7.046;2023-08-24T11:50:30;21.77;;;20.03;;
5117;SDS011;2578;51.622;7.046;2023-08-24T11:52:57;21.10;;;19.50;;
5117;SDS011;2578;51.622;7.046;2023-08-24T11:55:23;20.60;;;19.10;;
5117;SDS011;2578;51.622;7.046;2023-08-24T11:57:49;20.50;;;19.00;;
5117;SDS011;2578;51.622;7.046;2023-08-24T12:00:16;19.97;;;18.47;;
5117;SDS011;2578;51.622;7.046;2023-08-24T12:02:44;19.53;;;18.13;;
5117;SDS011;2578;51.622;7.046;2023-08-24T12:05:23;19.47;;;18.07;;
5117;SDS011;2578;51.622;7.046;2023-08-24T12:07:50;18.90;;;17.50;;
5117;SDS011;2578;51.622;7.046;2023-08-24T12:10:17;19.17;;;17.77;;
5117;SDS011;2578;51.622;7.046;2023-08-24T12:12:43;20.17;;;18.67;;
5117;SDS011;2578;51.622;7.046;2023-08-24T12:15:14;21.73;;;20.07;;
5117;SDS011;2578;51.622;7.046;2023-08-24T12:17:45;21.20;;;19.60;;
5117;SDS011;2578;51.622;7.046;2023-08-24T12:20:20;21.00;;;19.40;;
5117;SDS011;2578;51.622;7.046;2023-08-24T12:22:50;21.40;;;19.80;;
5117;SDS011;2578;51.622;7.046;2023-08-24T12:25:22;22.53;;;20.73;;
5117;SDS011;2578;51.622;7.046;2023-08-24T12:27:50;23.13;;;21.43;;
5117;SDS011;2578;51.622;7.046;2023-08-24T12:30:17;22.43;;;20.73;;
5117;SDS011;2578;51.622;7.046;2023-08-24T12:32:43;23.00;;;21.20;;
5117;SDS011;2578;51.622;7.046;2023-08-24T12:35:14;22.30;;;20.60;;
5117;SDS011;2578;51.622;7.046;2023-08-24T12:37:40;24.13;;;21.37;;
5117;SDS011;2578;51.622;7.046;2023-08-24T12:40:06;22.43;;;20.73;;
5117;SDS011;2578;51.622;7.046;2023-08-24T12:42:33;22.63;;;20.93;;
5117;SDS011;2578;51.622;7.046;2023-08-24T12:44:59;22.47;;;20.77;;
5117;SDS011;2578;51.622;7.046;2023-08-24T12:47:24;22.40;;;20.70;;
5117;SDS011;2578;51.622;7.046;2023-08-24T12:49:51;21.70;;;20.10;;
5117;SDS011;2578;51.622;7.046;2023-08-24T12:52:17;22.80;;;21.10;;
5117;SDS011;2578;51.622;7.046;2023-08-24T12:54:43;21.33;;;19.80;;
5117;SDS011;2578;51.622;7.046;2023-08-24T12:57:09;20.90;;;19.40;;
5117;SDS011;2578;51.622;7.046;2023-08-24T12:59:35;20.93;;;19.43;;
5117;SDS011;2578;51.622;7.046;2023-08-24T13:02:00;21.40;;;19.80;;
5117;SDS011;2578;51.622;7.046;2023-08-24T13:04:26;20.90;;;19.40;;
5117;SDS011;2578;51.622;7.046;2023-08-24T13:06:58;21.60;;;19.97;;
5117;SDS011;2578;51.622;7.046;2023-08-24T13:09:24;21.30;;;19.40;;
5117;SDS011;2578;51.622;7.046;2023-08-24T13:11:50;18.50;;;17.20;;
5117;SDS011;2578;51.622;7.046;2023-08-24T13:14:17;16.00;;;14.90;;
5117;SDS011;2578;51.622;7.046;2023-08-24T13:16:42;13.00;;;12.20;;
5117;SDS011;2578;51.622;7.046;2023-08-24T13:19:08;13.27;;;12.47;;
5117;SDS011;2578;51.622;7.046;2023-08-24T13:21:34;14.90;;;13.90;;
5117;SDS011;2578;51.622;7.046;2023-08-24T13:23:59;14.20;;;13.30;;
5117;SDS011;2578;51.622;7.046;2023-08-24T13:26:25;14.83;;;13.83;;
5117;SDS011;2578;51.622;7.046;2023-08-24T13:28:51;15.03;;;13.93;;
5117;SDS011;2578;51.622;7.046;2023-08-24T13:31:17;14.47;;;13.47;;
5117;SDS011;2578;51.622;7.046;2023-08-24T13:33:46;14.70;;;13.70;;
5117;SDS011;2578;51.622;7.046;2023-08-24T13:36:12;14.13;;;13.23;;
5117;SDS011;2578;51.622;7.046;2023-08-24T13:38:38;13.53;;;12.63;;
5117;SDS011;2578;51.622;7.046;2023-08-24T13:41:04;14.17;;;13.27;;
5117;SDS011;2578;51.622;7.046;2023-08-24T13:43:31;15.30;;;14.30;;
5117;SDS011;2578;51.622;7.046;2023-08-24T13:45:57;14.67;;;13.70;;
5117;SDS011;2578;51.622;7.046;2023-08-24T13:48:23;16.00;;;14.90;;
5117;SDS011;2578;51.622;7.046;2023-08-24T13:50:52;15.97;;;14.90;;
5117;SDS011;2578;51.622;7.046;2023-08-24T13:53:18;16.73;;;15.60;;
5117;SDS011;2578;51.622;7.046;2023-08-24T13:55:45;17.53;;;16.07;;
5117;SDS011;2578;51.622;7.046;2023-08-24T13:58:11;17.43;;;16.20;;
5117;SDS011;2578;51.622;7.046;2023-08-24T14:00:37;18.33;;;17.03;;
5117;SDS011;2578;51.622;7.046;2023-08-24T14:03:03;19.33;;;17.83;;
5117;SDS011;2578;51.622;7.046;2023-08-24T14:05:29;18.40;;;17.10;;
5117;SDS011;2578;51.622;7.046;2023-08-24T14:07:55;17.17;;;15.97;;
5117;SDS011;2578;51.622;7.046;2023-08-24T14:10:20;17.40;;;16.20;;
5117;SDS011;2578;51.622;7.046;2023-08-24T14:12:46;17.43;;;16.13;;
5117;SDS011;2578;51.622;7.046;2023-08-24T14:15:12;17.13;;;15.93;;
5117;SDS011;2578;51.622;7.046;2023-08-24T14:17:38;17.90;;;16.60;;
5117;SDS011;2578;51.622;7.046;2023-08-24T14:20:04;17.70;;;16.50;;
5117;SDS011;2578;51.622;7.046;2023-08-24T14:22:30;18.30;;;17.00;;
5117;SDS011;2578;51.622;7.046;2023-08-24T14:24:56;18.10;;;16.80;;
5117;SDS011;2578;51.622;7.046;2023-08-24T14:27:22;19.30;;;17.80;;
5117;SDS011;2578;51.622;7.046;2023-08-24T14:29:47;18.23;;;16.93;;
5117;SDS011;2578;51.622;7.046;2023-08-24T14:32:13;18.00;;;16.70;;
5117;SDS011;2578;51.622;7.046;2023-08-24T14:34:39;17.90;;;16.60;;
5117;SDS011;2578;51.622;7.046;2023-08-24T14:37:05;18.80;;;17.40;;
5117;SDS011;2578;51.622;7.046;2023-08-24T14:39:31;18.50;;;17.20;;
5117;SDS011;2578;51.622;7.046;2023-08-24T14:41:56;47.67;;;19.90;;
5117;SDS011;2578;51.622;7.046;2023-08-24T14:44:22;18.40;;;17.10;;
5117;SDS011;2578;51.622;7.046;2023-08-24T14:46:48;17.87;;;16.57;;
5117;SDS011;2578;51.622;7.046;2023-08-24T14:49:13;18.60;;;17.03;;
5117;SDS011;2578;51.622;7.046;2023-08-24T14:51:43;17.57;;;16.37;;
5117;SDS011;2578;51.622;7.046;2023-08-24T14:54:10;17.17;;;15.97;;
5117;SDS011;2578;51.622;7.046;2023-08-24T14:56:38;17.10;;;15.90;;
5117;SDS011;2578;51.622;7.046;2023-08-24T14:59:04;17.20;;;16.00;;
5117;SDS011;2578;51.622;7.046;2023-08-24T15:01:30;16.90;;;15.70;;
5117;SDS011;2578;51.622;7.046;2023-08-24T15:03:55;16.93;;;15.73;;
5117;SDS011;2578;51.622;7.046;2023-08-24T15:06:22;17.00;;;15.80;;